sensor_id;sensor_type;location;lat;lon;timestamp;temperature;humidity
45491;DHT22;31237;45.586;13.782;2023-05-10T00:00:40;12.40;74.80
45491;DHT22;31237;45.586;13.782;2023-05-10T00:03:06;12.40;74.90
45491;DHT22;31237;45.586;13.782;2023-05-10T00:05:32;12.40;75.00
45491;DHT22;31237;45.586;13.782;2023-05-10T00:07:58;12.30;75.10
45491;DHT22;31237;45.586;13.782;2023-05-10T00:10:23;12.30;75.30
45491;DHT22;31237;45.586;13.782;2023-05-10T00:12:49;12.20;75.30
45491;DHT22;31237;45.586;13.782;2023-05-10T00:15:15;12.30;75.40
45491;DHT22;31237;45.586;13.782;2023-05-10T00:17:40;12.30;75.40
45491;DHT22;31237;45.586;13.782;2023-05-10T00:20:07;12.20;75.40
45491;DHT22;31237;45.586;13.782;2023-05-10T00:22:33;12.20;75.60
45491;DHT22;31237;45.586;13.782;2023-05-10T00:24:59;12.20;75.90
45491;DHT22;31237;45.586;13.782;2023-05-10T00:27:24;12.20;75.90
45491;DHT22;31237;45.586;13.782;2023-05-10T00:29:50;12.20;76.00
45491;DHT22;31237;45.586;13.782;2023-05-10T00:32:15;12.20;76.10
45491;DHT22;31237;45.586;13.782;2023-05-10T00:34:41;12.20;76.10
45491;DHT22;31237;45.586;13.782;2023-05-10T00:37:07;12.20;76.20
45491;DHT22;31237;45.586;13.782;2023-05-10T00:39:33;12.20;76.20
45491;DHT22;31237;45.586;13.782;2023-05-10T00:41:58;12.20;76.30
45491;DHT22;31237;45.586;13.782;2023-05-10T00:44:25;12.20;76.30
45491;DHT22;31237;45.586;13.782;2023-05-10T00:46:51;12.30;76.40
45491;DHT22;31237;45.586;13.782;2023-05-10T00:49:17;12.20;76.60
45491;DHT22;31237;45.586;13.782;2023-05-10T00:51:43;12.30;76.60
45491;DHT22;31237;45.586;13.782;2023-05-10T00:54:14;12.30;76.70
45491;DHT22;31237;45.586;13.782;2023-05-10T00:56:43;12.30;76.70
45491;DHT22;31237;45.586;13.782;2023-05-10T00:59:17;12.30;76.70
45491;DHT22;31237;45.586;13.782;2023-05-10T01:01:46;12.30;76.70
45491;DHT22;31237;45.586;13.782;2023-05-10T01:04:13;12.40;76.80
45491;DHT22;31237;45.586;13.782;2023-05-10T01:06:42;12.40;76.90
45491;DHT22;31237;45.586;13.782;2023-05-10T01:09:08;12.40;77.00
45491;DHT22;31237;45.586;13.782;2023-05-10T01:11:38;12.40;76.90
45491;DHT22;31237;45.586;13.782;2023-05-10T01:14:05;12.40;76.90
45491;DHT22;31237;45.586;13.782;2023-05-10T01:16:41;12.50;77.00
45491;DHT22;31237;45.586;13.782;2023-05-10T01:30:42;12.60;77.00
45491;DHT22;31237;45.586;13.782;2023-05-10T01:33:19;12.60;77.10
45491;DHT22;31237;45.586;13.782;2023-05-10T01:35:55;12.60;77.00
45491;DHT22;31237;45.586;13.782;2023-05-10T01:38:49;12.60;77.00
45491;DHT22;31237;45.586;13.782;2023-05-10T01:46:38;12.70;77.10
45491;DHT22;31237;45.586;13.782;2023-05-10T01:49:13;12.70;77.00
45491;DHT22;31237;45.586;13.782;2023-05-10T01:51:45;12.70;77.00
45491;DHT22;31237;45.586;13.782;2023-05-10T01:54:13;12.70;76.90
45491;DHT22;31237;45.586;13.782;2023-05-10T01:56:40;12.80;77.00
45491;DHT22;31237;45.586;13.782;2023-05-10T01:59:11;12.80;77.00
45491;DHT22;31237;45.586;13.782;2023-05-10T02:01:39;12.80;77.10
45491;DHT22;31237;45.586;13.782;2023-05-10T02:04:07;12.80;77.10
45491;DHT22;31237;45.586;13.782;2023-05-10T02:06:34;12.80;77.00
45491;DHT22;31237;45.586;13.782;2023-05-10T02:09:01;12.80;77.10
45491;DHT22;31237;45.586;13.782;2023-05-10T02:11:29;12.80;77.10
45491;DHT22;31237;45.586;13.782;2023-05-10T02:13:56;12.80;77.10
45491;DHT22;31237;45.586;13.782;2023-05-10T02:16:26;12.90;77.20
45491;DHT22;31237;45.586;13.782;2023-05-10T02:18:53;12.90;77.20
45491;DHT22;31237;45.586;13.782;2023-05-10T02:21:20;12.90;77.20
45491;DHT22;31237;45.586;13.782;2023-05-10T02:23:48;12.90;77.20
45491;DHT22;31237;45.586;13.782;2023-05-10T02:26:16;12.90;77.20
45491;DHT22;31237;45.586;13.782;2023-05-10T02:28:42;12.90;77.30
45491;DHT22;31237;45.586;13.782;2023-05-10T02:31:09;12.90;77.30
45491;DHT22;31237;45.586;13.782;2023-05-10T02:33:38;12.90;77.30
45491;DHT22;31237;45.586;13.782;2023-05-10T02:36:07;12.90;77.30
45491;DHT22;31237;45.586;13.782;2023-05-10T02:38:33;12.90;77.40
45491;DHT22;31237;45.586;13.782;2023-05-10T02:41:00;12.90;77.50
45491;DHT22;31237;45.586;13.782;2023-05-10T02:43:28;12.90;77.50
45491;DHT22;31237;45.586;13.782;2023-05-10T02:45:55;12.90;77.60
45491;DHT22;31237;45.586;13.782;2023-05-10T02:48:21;12.90;77.60
45491;DHT22;31237;45.586;13.782;2023-05-10T02:50:47;13.00;77.70
45491;DHT22;31237;45.586;13.782;2023-05-10T02:53:21;13.00;77.70
45491;DHT22;31237;45.586;13.782;2023-05-10T02:55:51;13.00;77.70
45491;DHT22;31237;45.586;13.782;2023-05-10T02:58:17;13.00;77.70
45491;DHT22;31237;45.586;13.782;2023-05-10T03:00:45;13.00;77.70
45491;DHT22;31237;45.586;13.782;2023-05-10T03:03:11;13.00;77.70
45491;DHT22;31237;45.586;13.782;2023-05-10T03:05:37;13.00;77.70
45491;DHT22;31237;45.586;13.782;2023-05-10T03:08:03;13.00;77.70
45491;DHT22;31237;45.586;13.782;2023-05-10T03:10:31;13.00;77.70
45491;DHT22;31237;45.586;13.782;2023-05-10T03:13:31;13.10;77.80
45491;DHT22;31237;45.586;13.782;2023-05-10T03:16:07;13.10;77.80
45491;DHT22;31237;45.586;13.782;2023-05-10T03:18:37;13.10;77.80
45491;DHT22;31237;45.586;13.782;2023-05-10T03:21:04;13.10;77.80
45491;DHT22;31237;45.586;13.782;2023-05-10T03:23:43;13.10;78.10
45491;DHT22;31237;45.586;13.782;2023-05-10T03:26:23;13.10;77.90
45491;DHT22;31237;45.586;13.782;2023-05-10T03:28:52;13.10;77.90
45491;DHT22;31237;45.586;13.782;2023-05-10T03:31:18;13.10;77.90
45491;DHT22;31237;45.586;13.782;2023-05-10T03:33:48;13.10;78.00
45491;DHT22;31237;45.586;13.782;2023-05-10T03:36:13;13.10;77.90
45491;DHT22;31237;45.586;13.782;2023-05-10T03:38:39;13.10;78.00
45491;DHT22;31237;45.586;13.782;2023-05-10T03:41:05;13.20;78.00
45491;DHT22;31237;45.586;13.782;2023-05-10T03:43:30;13.10;78.00
45491;DHT22;31237;45.586;13.782;2023-05-10T03:45:56;13.10;78.10
45491;DHT22;31237;45.586;13.782;2023-05-10T03:48:22;13.10;78.10
45491;DHT22;31237;45.586;13.782;2023-05-10T03:50:47;13.10;78.30
45491;DHT22;31237;45.586;13.782;2023-05-10T03:53:15;13.10;78.40
45491;DHT22;31237;45.586;13.782;2023-05-10T03:55:40;13.10;78.40
45491;DHT22;31237;45.586;13.782;2023-05-10T03:58:06;13.20;78.50
45491;DHT22;31237;45.586;13.782;2023-05-10T04:00:35;13.20;78.50
45491;DHT22;31237;45.586;13.782;2023-05-10T04:03:01;13.20;78.60
45491;DHT22;31237;45.586;13.782;2023-05-10T04:05:27;13.10;78.50
45491;DHT22;31237;45.586;13.782;2023-05-10T04:07:52;13.20;78.60
45491;DHT22;31237;45.586;13.782;2023-05-10T04:10:18;13.20;78.60
45491;DHT22;31237;45.586;13.782;2023-05-10T04:12:44;13.20;78.70
45491;DHT22;31237;45.586;13.782;2023-05-10T04:15:09;13.20;78.70
45491;DHT22;31237;45.586;13.782;2023-05-10T04:17:35;13.20;78.70
45491;DHT22;31237;45.586;13.782;2023-05-10T04:20:01;13.20;78.80
45491;DHT22;31237;45.586;13.782;2023-05-10T04:22:27;13.20;78.90
45491;DHT22;31237;45.586;13.782;2023-05-10T04:24:54;13.20;78.90
45491;DHT22;31237;45.586;13.782;2023-05-10T04:27:20;13.20;79.00
45491;DHT22;31237;45.586;13.782;2023-05-10T04:29:45;13.20;79.10
45491;DHT22;31237;45.586;13.782;2023-05-10T04:32:11;13.30;79.20
45491;DHT22;31237;45.586;13.782;2023-05-10T04:34:37;13.30;79.50
45491;DHT22;31237;45.586;13.782;2023-05-10T04:37:03;13.30;79.30
45491;DHT22;31237;45.586;13.782;2023-05-10T04:39:28;13.30;79.40
45491;DHT22;31237;45.586;13.782;2023-05-10T04:41:54;13.20;79.40
45491;DHT22;31237;45.586;13.782;2023-05-10T04:44:20;13.30;79.60
45491;DHT22;31237;45.586;13.782;2023-05-10T04:46:45;13.30;79.60
45491;DHT22;31237;45.586;13.782;2023-05-10T04:49:11;13.30;79.80
45491;DHT22;31237;45.586;13.782;2023-05-10T04:51:37;13.30;80.00
45491;DHT22;31237;45.586;13.782;2023-05-10T04:54:02;13.30;80.10
45491;DHT22;31237;45.586;13.782;2023-05-10T04:56:28;13.30;80.20
45491;DHT22;31237;45.586;13.782;2023-05-10T04:58:54;13.30;80.50
45491;DHT22;31237;45.586;13.782;2023-05-10T05:01:19;13.30;80.70
45491;DHT22;31237;45.586;13.782;2023-05-10T05:03:45;13.30;81.00
45491;DHT22;31237;45.586;13.782;2023-05-10T05:06:11;13.30;81.10
45491;DHT22;31237;45.586;13.782;2023-05-10T05:08:37;13.20;81.20
45491;DHT22;31237;45.586;13.782;2023-05-10T05:11:02;13.30;81.50
45491;DHT22;31237;45.586;13.782;2023-05-10T05:13:28;13.20;81.70
45491;DHT22;31237;45.586;13.782;2023-05-10T05:15:53;13.20;81.80
45491;DHT22;31237;45.586;13.782;2023-05-10T05:18:20;13.20;82.00
45491;DHT22;31237;45.586;13.782;2023-05-10T05:20:45;13.20;82.20
45491;DHT22;31237;45.586;13.782;2023-05-10T05:23:11;13.20;82.50
45491;DHT22;31237;45.586;13.782;2023-05-10T05:25:37;13.20;82.70
45491;DHT22;31237;45.586;13.782;2023-05-10T05:28:03;13.20;83.00
45491;DHT22;31237;45.586;13.782;2023-05-10T05:30:28;13.20;83.20
45491;DHT22;31237;45.586;13.782;2023-05-10T05:32:54;13.20;83.50
45491;DHT22;31237;45.586;13.782;2023-05-10T05:35:20;13.20;83.70
45491;DHT22;31237;45.586;13.782;2023-05-10T05:37:46;13.30;83.90
45491;DHT22;31237;45.586;13.782;2023-05-10T05:40:14;13.30;84.20
45491;DHT22;31237;45.586;13.782;2023-05-10T05:42:40;13.30;84.40
45491;DHT22;31237;45.586;13.782;2023-05-10T05:45:07;13.30;84.50
45491;DHT22;31237;45.586;13.782;2023-05-10T05:47:34;13.30;84.60
45491;DHT22;31237;45.586;13.782;2023-05-10T05:49:59;13.40;84.90
45491;DHT22;31237;45.586;13.782;2023-05-10T05:52:25;13.30;85.00
45491;DHT22;31237;45.586;13.782;2023-05-10T05:54:51;13.40;85.30
45491;DHT22;31237;45.586;13.782;2023-05-10T05:57:17;13.40;85.50
45491;DHT22;31237;45.586;13.782;2023-05-10T05:59:42;13.40;85.80
45491;DHT22;31237;45.586;13.782;2023-05-10T06:02:10;13.50;86.00
45491;DHT22;31237;45.586;13.782;2023-05-10T06:04:35;13.50;86.10
45491;DHT22;31237;45.586;13.782;2023-05-10T06:07:01;13.60;86.20
45491;DHT22;31237;45.586;13.782;2023-05-10T06:09:27;13.60;86.40
45491;DHT22;31237;45.586;13.782;2023-05-10T06:11:52;13.70;86.40
45491;DHT22;31237;45.586;13.782;2023-05-10T06:14:20;13.70;86.50
45491;DHT22;31237;45.586;13.782;2023-05-10T06:16:46;13.70;86.60
45491;DHT22;31237;45.586;13.782;2023-05-10T06:19:12;13.80;86.70
45491;DHT22;31237;45.586;13.782;2023-05-10T06:21:37;13.80;86.80
45491;DHT22;31237;45.586;13.782;2023-05-10T06:24:03;13.90;86.90
45491;DHT22;31237;45.586;13.782;2023-05-10T06:26:29;13.90;86.80
45491;DHT22;31237;45.586;13.782;2023-05-10T06:28:55;14.00;86.90
45491;DHT22;31237;45.586;13.782;2023-05-10T06:31:21;14.00;87.00
45491;DHT22;31237;45.586;13.782;2023-05-10T06:33:46;14.00;87.10
45491;DHT22;31237;45.586;13.782;2023-05-10T06:36:12;14.10;87.00
45491;DHT22;31237;45.586;13.782;2023-05-10T06:38:38;14.10;87.10
45491;DHT22;31237;45.586;13.782;2023-05-10T06:41:04;14.10;87.10
45491;DHT22;31237;45.586;13.782;2023-05-10T06:43:30;14.20;87.00
45491;DHT22;31237;45.586;13.782;2023-05-10T06:45:56;14.20;87.10
45491;DHT22;31237;45.586;13.782;2023-05-10T06:48:22;14.20;87.20
45491;DHT22;31237;45.586;13.782;2023-05-10T06:50:48;14.30;87.40
45491;DHT22;31237;45.586;13.782;2023-05-10T06:53:14;14.30;87.30
45491;DHT22;31237;45.586;13.782;2023-05-10T06:55:39;14.40;87.30
45491;DHT22;31237;45.586;13.782;2023-05-10T06:58:05;14.40;87.40
45491;DHT22;31237;45.586;13.782;2023-05-10T07:00:31;14.50;87.70
45491;DHT22;31237;45.586;13.782;2023-05-10T07:02:57;14.50;88.30
45491;DHT22;31237;45.586;13.782;2023-05-10T07:05:22;14.60;87.70
45491;DHT22;31237;45.586;13.782;2023-05-10T07:07:48;14.60;87.90
45491;DHT22;31237;45.586;13.782;2023-05-10T07:10:14;14.60;87.90
45491;DHT22;31237;45.586;13.782;2023-05-10T07:12:39;14.70;88.10
45491;DHT22;31237;45.586;13.782;2023-05-10T07:15:06;14.70;88.10
45491;DHT22;31237;45.586;13.782;2023-05-10T07:17:31;14.70;88.10
45491;DHT22;31237;45.586;13.782;2023-05-10T07:19:59;14.70;88.30
45491;DHT22;31237;45.586;13.782;2023-05-10T07:22:25;14.80;88.30
45491;DHT22;31237;45.586;13.782;2023-05-10T07:24:51;14.80;88.60
45491;DHT22;31237;45.586;13.782;2023-05-10T07:27:17;14.80;88.70
45491;DHT22;31237;45.586;13.782;2023-05-10T07:29:42;14.80;88.80
45491;DHT22;31237;45.586;13.782;2023-05-10T07:32:08;14.80;88.90
45491;DHT22;31237;45.586;13.782;2023-05-10T07:34:33;14.80;89.00
45491;DHT22;31237;45.586;13.782;2023-05-10T07:36:59;14.90;89.20
45491;DHT22;31237;45.586;13.782;2023-05-10T07:39:26;14.90;89.30
45491;DHT22;31237;45.586;13.782;2023-05-10T07:41:52;14.90;89.60
45491;DHT22;31237;45.586;13.782;2023-05-10T07:44:17;14.90;89.80
45491;DHT22;31237;45.586;13.782;2023-05-10T07:46:44;14.90;90.00
45491;DHT22;31237;45.586;13.782;2023-05-10T07:49:10;14.90;90.00
45491;DHT22;31237;45.586;13.782;2023-05-10T07:51:35;15.00;90.20
45491;DHT22;31237;45.586;13.782;2023-05-10T07:54:01;15.00;90.20
45491;DHT22;31237;45.586;13.782;2023-05-10T07:56:31;15.00;90.30
45491;DHT22;31237;45.586;13.782;2023-05-10T07:59:01;15.10;90.30
45491;DHT22;31237;45.586;13.782;2023-05-10T08:01:30;15.10;90.30
45491;DHT22;31237;45.586;13.782;2023-05-10T08:03:56;15.10;90.40
45491;DHT22;31237;45.586;13.782;2023-05-10T08:06:22;15.10;90.40
45491;DHT22;31237;45.586;13.782;2023-05-10T08:08:48;15.20;90.40
45491;DHT22;31237;45.586;13.782;2023-05-10T08:11:18;15.20;90.40
45491;DHT22;31237;45.586;13.782;2023-05-10T08:13:46;15.20;90.40
45491;DHT22;31237;45.586;13.782;2023-05-10T08:16:12;15.30;90.50
45491;DHT22;31237;45.586;13.782;2023-05-10T08:18:38;15.30;90.40
45491;DHT22;31237;45.586;13.782;2023-05-10T08:21:05;15.30;90.30
45491;DHT22;31237;45.586;13.782;2023-05-10T08:23:31;15.30;90.20
45491;DHT22;31237;45.586;13.782;2023-05-10T08:25:57;15.40;90.30
45491;DHT22;31237;45.586;13.782;2023-05-10T08:28:22;15.30;90.20
45491;DHT22;31237;45.586;13.782;2023-05-10T08:30:49;15.30;90.30
45491;DHT22;31237;45.586;13.782;2023-05-10T08:33:15;15.30;90.20
45491;DHT22;31237;45.586;13.782;2023-05-10T08:35:41;15.20;90.20
45491;DHT22;31237;45.586;13.782;2023-05-10T08:38:07;15.20;90.20
45491;DHT22;31237;45.586;13.782;2023-05-10T08:40:32;15.20;90.20
45491;DHT22;31237;45.586;13.782;2023-05-10T08:43:11;15.10;90.10
45491;DHT22;31237;45.586;13.782;2023-05-10T08:45:43;15.00;90.10
45491;DHT22;31237;45.586;13.782;2023-05-10T08:48:10;14.90;90.10
45491;DHT22;31237;45.586;13.782;2023-05-10T08:50:38;14.90;90.30
45491;DHT22;31237;45.586;13.782;2023-05-10T08:53:12;14.80;90.40
45491;DHT22;31237;45.586;13.782;2023-05-10T08:55:38;14.70;90.40
45491;DHT22;31237;45.586;13.782;2023-05-10T08:58:07;14.70;90.50
45491;DHT22;31237;45.586;13.782;2023-05-10T09:00:33;14.60;90.60
45491;DHT22;31237;45.586;13.782;2023-05-10T09:02:59;14.50;90.70
45491;DHT22;31237;45.586;13.782;2023-05-10T09:05:25;14.50;90.80
45491;DHT22;31237;45.586;13.782;2023-05-10T09:07:51;14.50;91.10
45491;DHT22;31237;45.586;13.782;2023-05-10T09:10:17;14.50;91.20
45491;DHT22;31237;45.586;13.782;2023-05-10T09:12:44;14.50;91.40
45491;DHT22;31237;45.586;13.782;2023-05-10T09:15:11;14.60;91.70
45491;DHT22;31237;45.586;13.782;2023-05-10T09:17:39;14.60;91.60
45491;DHT22;31237;45.586;13.782;2023-05-10T09:20:06;14.60;91.70
45491;DHT22;31237;45.586;13.782;2023-05-10T09:22:33;14.60;91.70
45491;DHT22;31237;45.586;13.782;2023-05-10T09:25:12;14.60;91.80
45491;DHT22;31237;45.586;13.782;2023-05-10T09:27:39;14.60;91.90
45491;DHT22;31237;45.586;13.782;2023-05-10T09:30:07;14.60;92.00
45491;DHT22;31237;45.586;13.782;2023-05-10T09:32:51;14.60;92.10
45491;DHT22;31237;45.586;13.782;2023-05-10T09:35:19;14.60;92.10
45491;DHT22;31237;45.586;13.782;2023-05-10T09:37:48;14.60;92.20
45491;DHT22;31237;45.586;13.782;2023-05-10T09:40:19;14.50;92.20
45491;DHT22;31237;45.586;13.782;2023-05-10T09:43:11;14.50;92.40
45491;DHT22;31237;45.586;13.782;2023-05-10T09:45:41;14.40;92.50
45491;DHT22;31237;45.586;13.782;2023-05-10T09:48:06;14.30;92.60
45491;DHT22;31237;45.586;13.782;2023-05-10T09:50:32;14.20;92.70
45491;DHT22;31237;45.586;13.782;2023-05-10T09:53:01;14.20;92.80
45491;DHT22;31237;45.586;13.782;2023-05-10T09:55:42;14.20;92.90
45491;DHT22;31237;45.586;13.782;2023-05-10T09:58:10;14.20;93.00
45491;DHT22;31237;45.586;13.782;2023-05-10T10:00:40;14.10;93.10
45491;DHT22;31237;45.586;13.782;2023-05-10T10:03:15;14.10;93.20
45491;DHT22;31237;45.586;13.782;2023-05-10T10:05:43;14.10;93.30
45491;DHT22;31237;45.586;13.782;2023-05-10T10:08:09;14.10;93.40
45491;DHT22;31237;45.586;13.782;2023-05-10T10:10:35;14.00;93.50
45491;DHT22;31237;45.586;13.782;2023-05-10T10:13:02;14.00;93.60
45491;DHT22;31237;45.586;13.782;2023-05-10T10:15:28;14.00;93.70
45491;DHT22;31237;45.586;13.782;2023-05-10T10:17:54;13.90;93.80
45491;DHT22;31237;45.586;13.782;2023-05-10T10:20:21;13.90;93.90
45491;DHT22;31237;45.586;13.782;2023-05-10T10:22:48;13.90;94.00
45491;DHT22;31237;45.586;13.782;2023-05-10T10:25:15;14.00;94.00
45491;DHT22;31237;45.586;13.782;2023-05-10T10:35:48;14.00;94.40
45491;DHT22;31237;45.586;13.782;2023-05-10T10:38:15;14.10;94.50
45491;DHT22;31237;45.586;13.782;2023-05-10T10:40:41;14.10;94.50
45491;DHT22;31237;45.586;13.782;2023-05-10T10:43:27;14.20;94.60
45491;DHT22;31237;45.586;13.782;2023-05-10T10:46:15;14.30;94.70
45491;DHT22;31237;45.586;13.782;2023-05-10T10:48:48;14.40;94.80
45491;DHT22;31237;45.586;13.782;2023-05-10T10:51:15;14.50;94.80
45491;DHT22;31237;45.586;13.782;2023-05-10T10:53:41;14.60;94.80
45491;DHT22;31237;45.586;13.782;2023-05-10T10:56:13;14.70;94.80
45491;DHT22;31237;45.586;13.782;2023-05-10T10:58:40;14.80;94.80
45491;DHT22;31237;45.586;13.782;2023-05-10T11:01:17;14.80;94.80
45491;DHT22;31237;45.586;13.782;2023-05-10T11:04:16;14.90;94.90
45491;DHT22;31237;45.586;13.782;2023-05-10T11:06:42;14.90;94.70
45491;DHT22;31237;45.586;13.782;2023-05-10T11:09:09;14.90;94.70
45491;DHT22;31237;45.586;13.782;2023-05-10T11:11:36;15.00;94.70
45491;DHT22;31237;45.586;13.782;2023-05-10T11:14:13;15.00;94.80
45491;DHT22;31237;45.586;13.782;2023-05-10T11:16:43;15.10;94.90
45491;DHT22;31237;45.586;13.782;2023-05-10T11:19:12;15.10;94.90
45491;DHT22;31237;45.586;13.782;2023-05-10T11:21:50;15.20;94.90
45491;DHT22;31237;45.586;13.782;2023-05-10T11:24:20;15.30;94.90
45491;DHT22;31237;45.586;13.782;2023-05-10T11:26:48;15.30;94.90
45491;DHT22;31237;45.586;13.782;2023-05-10T11:29:16;15.30;94.90
45491;DHT22;31237;45.586;13.782;2023-05-10T11:31:45;15.30;95.00
45491;DHT22;31237;45.586;13.782;2023-05-10T11:34:25;15.40;94.90
45491;DHT22;31237;45.586;13.782;2023-05-10T11:36:52;15.40;95.00
45491;DHT22;31237;45.586;13.782;2023-05-10T11:39:19;15.40;95.00
45491;DHT22;31237;45.586;13.782;2023-05-10T11:41:48;15.50;95.10
45491;DHT22;31237;45.586;13.782;2023-05-10T11:44:14;15.50;95.00
45491;DHT22;31237;45.586;13.782;2023-05-10T11:46:40;15.50;95.00
45491;DHT22;31237;45.586;13.782;2023-05-10T11:49:07;15.60;94.90
45491;DHT22;31237;45.586;13.782;2023-05-10T11:51:34;15.60;95.00
45491;DHT22;31237;45.586;13.782;2023-05-10T11:54:09;15.60;95.10
45491;DHT22;31237;45.586;13.782;2023-05-10T11:56:36;15.60;95.10
45491;DHT22;31237;45.586;13.782;2023-05-10T11:59:01;15.70;95.20
45491;DHT22;31237;45.586;13.782;2023-05-10T12:01:28;15.70;95.10
45491;DHT22;31237;45.586;13.782;2023-05-10T12:03:56;15.70;95.20
45491;DHT22;31237;45.586;13.782;2023-05-10T12:06:32;15.70;95.10
45491;DHT22;31237;45.586;13.782;2023-05-10T12:09:05;15.80;95.20
45491;DHT22;31237;45.586;13.782;2023-05-10T12:11:31;15.80;95.10
45491;DHT22;31237;45.586;13.782;2023-05-10T12:13:57;15.80;95.00
45491;DHT22;31237;45.586;13.782;2023-05-10T12:16:25;15.80;95.10
45491;DHT22;31237;45.586;13.782;2023-05-10T12:18:53;15.80;95.10
45491;DHT22;31237;45.586;13.782;2023-05-10T12:21:20;15.80;95.20
45491;DHT22;31237;45.586;13.782;2023-05-10T12:23:54;15.90;95.20
45491;DHT22;31237;45.586;13.782;2023-05-10T12:26:28;15.90;95.10
45491;DHT22;31237;45.586;13.782;2023-05-10T12:28:54;15.90;95.10
45491;DHT22;31237;45.586;13.782;2023-05-10T12:31:20;15.80;94.80
45491;DHT22;31237;45.586;13.782;2023-05-10T12:33:46;15.80;94.80
45491;DHT22;31237;45.586;13.782;2023-05-10T12:36:15;15.80;94.90
45491;DHT22;31237;45.586;13.782;2023-05-10T12:38:43;15.80;94.90
45491;DHT22;31237;45.586;13.782;2023-05-10T12:41:10;15.80;95.00
45491;DHT22;31237;45.586;13.782;2023-05-10T12:43:36;15.80;94.90
45491;DHT22;31237;45.586;13.782;2023-05-10T12:46:09;15.80;94.90
45491;DHT22;31237;45.586;13.782;2023-05-10T12:48:37;15.80;94.90
45491;DHT22;31237;45.586;13.782;2023-05-10T12:51:04;15.80;95.00
45491;DHT22;31237;45.586;13.782;2023-05-10T12:53:29;15.80;95.00
45491;DHT22;31237;45.586;13.782;2023-05-10T12:55:56;15.80;95.00
45491;DHT22;31237;45.586;13.782;2023-05-10T12:58:21;15.80;95.00
45491;DHT22;31237;45.586;13.782;2023-05-10T13:00:47;15.80;95.00
45491;DHT22;31237;45.586;13.782;2023-05-10T13:03:13;15.70;94.90
45491;DHT22;31237;45.586;13.782;2023-05-10T13:05:40;15.70;94.90
45491;DHT22;31237;45.586;13.782;2023-05-10T13:08:05;15.60;95.00
45491;DHT22;31237;45.586;13.782;2023-05-10T13:10:31;15.60;95.10
45491;DHT22;31237;45.586;13.782;2023-05-10T13:12:57;15.60;95.00
45491;DHT22;31237;45.586;13.782;2023-05-10T13:15:23;15.60;95.00
45491;DHT22;31237;45.586;13.782;2023-05-10T13:17:49;15.60;95.10
45491;DHT22;31237;45.586;13.782;2023-05-10T13:20:15;15.60;95.20
45491;DHT22;31237;45.586;13.782;2023-05-10T13:22:42;15.60;95.30
45491;DHT22;31237;45.586;13.782;2023-05-10T13:25:08;15.50;95.20
45491;DHT22;31237;45.586;13.782;2023-05-10T13:27:34;15.60;95.30
45491;DHT22;31237;45.586;13.782;2023-05-10T13:30:00;15.60;95.30
45491;DHT22;31237;45.586;13.782;2023-05-10T13:32:26;15.60;95.40
45491;DHT22;31237;45.586;13.782;2023-05-10T13:34:52;15.60;95.40
45491;DHT22;31237;45.586;13.782;2023-05-10T13:37:18;15.60;95.40
45491;DHT22;31237;45.586;13.782;2023-05-10T13:39:43;15.60;95.40
45491;DHT22;31237;45.586;13.782;2023-05-10T13:42:09;15.60;95.30
45491;DHT22;31237;45.586;13.782;2023-05-10T13:44:35;15.60;95.30
45491;DHT22;31237;45.586;13.782;2023-05-10T13:47:01;15.60;95.30
45491;DHT22;31237;45.586;13.782;2023-05-10T13:49:27;15.60;95.30
45491;DHT22;31237;45.586;13.782;2023-05-10T13:51:52;15.50;95.30
45491;DHT22;31237;45.586;13.782;2023-05-10T13:54:18;15.50;95.30
45491;DHT22;31237;45.586;13.782;2023-05-10T13:56:45;15.40;95.30
45491;DHT22;31237;45.586;13.782;2023-05-10T13:59:12;15.40;95.30
45491;DHT22;31237;45.586;13.782;2023-05-10T14:01:42;15.30;95.30
45491;DHT22;31237;45.586;13.782;2023-05-10T14:04:08;15.30;95.30
45491;DHT22;31237;45.586;13.782;2023-05-10T14:06:36;15.20;95.30
45491;DHT22;31237;45.586;13.782;2023-05-10T14:09:02;15.20;95.40
45491;DHT22;31237;45.586;13.782;2023-05-10T14:11:28;15.10;95.50
45491;DHT22;31237;45.586;13.782;2023-05-10T14:13:54;15.10;95.60
45491;DHT22;31237;45.586;13.782;2023-05-10T14:16:20;15.10;95.50
45491;DHT22;31237;45.586;13.782;2023-05-10T14:18:46;15.00;95.60
45491;DHT22;31237;45.586;13.782;2023-05-10T14:21:12;14.90;95.50
45491;DHT22;31237;45.586;13.782;2023-05-10T14:23:38;14.90;95.60
45491;DHT22;31237;45.586;13.782;2023-05-10T14:26:04;14.80;95.60
45491;DHT22;31237;45.586;13.782;2023-05-10T14:28:29;14.80;95.70
45491;DHT22;31237;45.586;13.782;2023-05-10T14:30:55;14.70;95.70
45491;DHT22;31237;45.586;13.782;2023-05-10T14:33:21;14.70;95.80
45491;DHT22;31237;45.586;13.782;2023-05-10T14:35:47;14.70;95.90
45491;DHT22;31237;45.586;13.782;2023-05-10T14:38:13;14.70;96.00
45491;DHT22;31237;45.586;13.782;2023-05-10T14:40:39;14.70;96.00
45491;DHT22;31237;45.586;13.782;2023-05-10T14:43:05;14.70;96.00
45491;DHT22;31237;45.586;13.782;2023-05-10T14:45:30;14.70;96.00
45491;DHT22;31237;45.586;13.782;2023-05-10T14:47:57;14.60;96.00
45491;DHT22;31237;45.586;13.782;2023-05-10T14:50:23;14.60;96.00
45491;DHT22;31237;45.586;13.782;2023-05-10T14:52:49;14.50;96.00
45491;DHT22;31237;45.586;13.782;2023-05-10T14:55:15;14.50;96.10
45491;DHT22;31237;45.586;13.782;2023-05-10T14:57:41;14.50;96.10
45491;DHT22;31237;45.586;13.782;2023-05-10T15:00:07;14.40;96.10
45491;DHT22;31237;45.586;13.782;2023-05-10T15:02:33;14.40;96.20
45491;DHT22;31237;45.586;13.782;2023-05-10T15:04:59;14.40;96.30
45491;DHT22;31237;45.586;13.782;2023-05-10T15:07:25;14.30;96.30
45491;DHT22;31237;45.586;13.782;2023-05-10T15:09:51;14.20;96.40
45491;DHT22;31237;45.586;13.782;2023-05-10T15:12:18;14.20;96.50
45491;DHT22;31237;45.586;13.782;2023-05-10T15:14:43;14.10;96.50
45491;DHT22;31237;45.586;13.782;2023-05-10T15:17:10;14.10;96.60
45491;DHT22;31237;45.586;13.782;2023-05-10T15:19:36;14.10;96.70
45491;DHT22;31237;45.586;13.782;2023-05-10T15:22:02;14.00;96.70
45491;DHT22;31237;45.586;13.782;2023-05-10T15:24:28;14.00;96.80
45491;DHT22;31237;45.586;13.782;2023-05-10T15:26:54;14.00;96.90
45491;DHT22;31237;45.586;13.782;2023-05-10T15:29:20;13.90;97.00
45491;DHT22;31237;45.586;13.782;2023-05-10T15:31:50;14.00;97.00
45491;DHT22;31237;45.586;13.782;2023-05-10T15:34:16;13.90;97.00
45491;DHT22;31237;45.586;13.782;2023-05-10T15:36:42;13.90;97.00
45491;DHT22;31237;45.586;13.782;2023-05-10T15:39:10;13.80;97.10
45491;DHT22;31237;45.586;13.782;2023-05-10T15:41:39;13.90;97.20